createdAt,value
2018-02-25T00:01:33.468Z,60.26
2018-02-25T00:04:01.920Z,59.47
2018-02-25T00:06:30.680Z,59.22
2018-02-25T00:08:58.992Z,59.53
2018-02-25T00:11:27.344Z,59.81
2018-02-25T00:13:55.652Z,60.23
2018-02-25T00:16:23.960Z,59.85
2018-02-25T00:18:52.323Z,60.59
2018-02-25T00:21:20.632Z,60.20
2018-02-25T00:23:48.950Z,60.06
2018-02-25T00:26:17.773Z,59.98
2018-02-25T00:28:46.091Z,60.14
2018-02-25T00:31:14.405Z,60.42
2018-02-25T00:33:42.777Z,60.64
2018-02-25T00:36:11.099Z,60.20
2018-02-25T00:38:39.450Z,60.85
2018-02-25T00:41:07.815Z,61.10
2018-02-25T00:43:36.128Z,60.72
2018-02-25T00:46:04.436Z,60.41
2018-02-25T00:48:32.803Z,60.60
2018-02-25T00:51:01.121Z,60.52
2018-02-25T00:53:30.052Z,60.21
2018-02-25T00:55:58.461Z,60.67
2018-02-25T00:58:26.789Z,60.86
2018-02-25T01:00:55.105Z,60.87
2018-02-25T01:03:23.522Z,61.27
2018-02-25T01:05:51.812Z,61.01
2018-02-25T01:08:20.135Z,60.60
2018-02-25T01:10:49.044Z,60.59
2018-02-25T01:13:17.352Z,60.49
2018-02-25T01:15:45.673Z,60.75
2018-02-25T01:18:14.087Z,60.83
2018-02-25T01:20:42.435Z,60.60
2018-02-25T01:23:10.639Z,60.98
2018-02-25T01:25:39.010Z,60.99
2018-02-25T01:28:07.320Z,60.92
2018-02-25T01:30:35.636Z,61.37
2018-02-25T01:33:04.012Z,60.86
2018-02-25T01:35:32.322Z,61.52
2018-02-25T01:38:00.859Z,61.79
2018-02-25T01:40:29.548Z,60.91
2018-02-25T01:42:57.856Z,61.12
2018-02-25T01:45:26.759Z,61.51
2018-02-25T01:47:55.124Z,61.77
2018-02-25T01:50:23.436Z,62.68
2018-02-25T01:52:51.756Z,62.55
2018-02-25T01:55:20.136Z,62.77
2018-02-25T01:57:48.445Z,62.79
2018-02-25T02:00:18.152Z,62.93
2018-02-25T02:02:46.504Z,62.73
2018-02-25T02:05:14.816Z,63.17
2018-02-25T02:07:43.131Z,62.78
2018-02-25T02:10:12.188Z,63.16
2018-02-25T02:12:40.871Z,63.57
2018-02-25T02:15:09.227Z,63.34
2018-02-25T02:17:37.677Z,63.29
2018-02-25T02:20:05.995Z,64.20
2018-02-25T02:22:35.520Z,64.30
2018-02-25T02:25:04.831Z,64.64
2018-02-25T02:27:33.867Z,65.22
2018-02-25T02:30:02.425Z,64.46
2018-02-25T02:32:30.809Z,64.84
2018-02-25T02:34:59.521Z,64.55
2018-02-25T02:37:28.518Z,64.45
2018-02-25T02:39:57.745Z,64.70
2018-02-25T02:42:26.805Z,65.27
2018-02-25T02:44:55.434Z,65.48
2018-02-25T02:47:23.801Z,65.11
2018-02-25T02:49:52.109Z,65.39
2018-02-25T02:52:21.702Z,65.37
2018-02-25T02:54:50.024Z,64.89
2018-02-25T02:57:18.860Z,65.49
2018-02-25T02:59:47.407Z,65.20
2018-02-25T03:02:16.222Z,65.63
2018-02-25T03:04:44.720Z,65.93
2018-02-25T03:07:13.034Z,65.07
2018-02-25T03:09:41.391Z,64.47
2018-02-25T03:12:09.704Z,64.53
2018-02-25T03:14:38.017Z,64.40
2018-02-25T03:17:06.726Z,64.56
2018-02-25T03:19:35.351Z,64.47
2018-02-25T03:22:04.118Z,64.15
2018-02-25T03:24:32.746Z,64.86
2018-02-25T03:27:01.929Z,65.37
2018-02-25T03:29:30.235Z,65.13
2018-02-25T03:31:58.611Z,65.19
2018-02-25T03:34:26.947Z,65.34
2018-02-25T03:36:55.261Z,65.68
2018-02-25T03:39:23.620Z,66.50
2018-02-25T03:41:52.567Z,66.22
2018-02-25T03:44:20.874Z,66.62
2018-02-25T03:46:49.236Z,67.37
2018-02-25T03:49:18.320Z,67.50
2018-02-25T03:51:46.632Z,67.67
2018-02-25T03:54:15.087Z,66.34
2018-02-25T03:56:43.396Z,66.61
2018-02-25T03:59:11.704Z,67.75
2018-02-25T04:01:40.045Z,68.23
2018-02-25T04:04:08.355Z,68.65
2018-02-25T04:06:36.725Z,68.90
2018-02-25T04:09:05.109Z,68.95
2018-02-25T04:11:33.415Z,68.04
2018-02-25T04:14:02.528Z,67.62
2018-02-25T04:16:30.849Z,67.92
2018-02-25T04:18:59.151Z,68.50
2018-02-25T04:21:27.516Z,68.27
2018-02-25T04:23:55.819Z,68.15
2018-02-25T04:26:24.148Z,68.25
2018-02-25T04:28:52.555Z,68.47
2018-02-25T04:31:21.039Z,68.49
2018-02-25T04:33:50.144Z,69.40
2018-02-25T04:36:19.104Z,68.67
2018-02-25T04:38:47.823Z,68.25
2018-02-25T04:41:16.130Z,68.66
2018-02-25T04:43:44.484Z,68.74
2018-02-25T04:46:13.551Z,68.96
2018-02-25T04:48:41.860Z,68.22
2018-02-25T04:51:10.979Z,68.35
2018-02-25T04:53:40.055Z,68.70
2018-02-25T04:56:09.748Z,68.59
2018-02-25T04:58:38.113Z,68.61
2018-02-25T05:01:06.471Z,69.16
2018-02-25T05:03:34.753Z,68.18
2018-02-25T05:06:03.088Z,68.34
2018-02-25T05:08:31.464Z,68.37
2018-02-25T05:10:59.813Z,68.52
2018-02-25T05:13:28.132Z,68.12
2018-02-25T05:15:56.448Z,67.88
2018-02-25T05:18:24.779Z,67.60
2018-02-25T05:20:53.129Z,67.97
2018-02-25T05:23:21.488Z,67.43
2018-02-25T05:25:49.868Z,66.95
2018-02-25T05:28:18.184Z,66.79
2018-02-25T05:30:47.052Z,67.67
2018-02-25T05:33:15.411Z,68.14
2018-02-25T05:35:44.382Z,67.85
2018-02-25T05:38:12.733Z,67.29
2018-02-25T05:40:41.171Z,67.45
2018-02-25T05:43:09.481Z,67.66
2018-02-25T05:45:38.912Z,67.89
2018-02-25T05:48:08.216Z,68.00
2018-02-25T05:50:36.560Z,68.23
2018-02-25T05:53:04.872Z,67.79
2018-02-25T05:55:33.327Z,68.14
2018-02-25T05:58:01.648Z,67.80
2018-02-25T06:00:29.956Z,68.08
2018-02-25T06:02:58.544Z,67.68
2018-02-25T06:05:27.061Z,67.52
2018-02-25T06:07:55.405Z,67.74
2018-02-25T06:10:24.052Z,68.45
2018-02-25T06:12:52.367Z,68.77
2018-02-25T06:15:21.334Z,68.61
2018-02-25T06:17:50.479Z,68.02
2018-02-25T06:20:18.793Z,67.99
2018-02-25T06:22:47.112Z,67.67
2018-02-25T06:25:15.547Z,67.85
2018-02-25T06:27:43.860Z,68.07
2018-02-25T06:30:12.349Z,67.68
2018-02-25T06:32:40.853Z,67.60
2018-02-25T06:35:09.420Z,66.79
2018-02-25T06:37:38.136Z,66.87
2018-02-25T06:40:06.734Z,67.03
2018-02-25T06:42:35.414Z,67.61
2018-02-25T06:45:04.047Z,67.01
2018-02-25T06:47:33.086Z,66.79
2018-02-25T06:50:01.431Z,66.52
2018-02-25T06:52:29.764Z,65.75
2018-02-25T06:54:58.108Z,64.66
2018-02-25T06:57:26.717Z,62.38
2018-02-25T06:59:55.411Z,60.34
2018-02-25T07:02:24.283Z,60.04
2018-02-25T07:04:52.627Z,59.39
2018-02-25T07:07:21.991Z,57.70
2018-02-25T07:09:50.820Z,55.65
2018-02-25T07:12:19.490Z,54.82
2018-02-25T07:14:48.624Z,54.02
2018-02-25T07:17:17.351Z,53.55
2018-02-25T07:19:45.708Z,52.14
2018-02-25T07:22:14.065Z,50.23
2018-02-25T07:24:42.597Z,51.02
2018-02-25T07:27:11.941Z,50.55
2018-02-25T07:29:40.629Z,49.73
2018-02-25T07:32:08.967Z,47.88
2018-02-25T07:34:37.629Z,46.97
2018-02-25T07:37:05.940Z,48.43
2018-02-25T07:39:34.803Z,47.21
2018-02-25T07:42:04.197Z,48.27
2018-02-25T07:44:32.544Z,44.68
2018-02-25T07:47:00.872Z,45.08
2018-02-25T07:49:29.166Z,43.84
2018-02-25T07:51:57.913Z,44.58
2018-02-25T07:54:26.426Z,42.83
2018-02-25T07:56:54.974Z,42.82
2018-02-25T07:59:23.710Z,40.60
2018-02-25T08:01:52.797Z,39.96
2018-02-25T08:04:22.721Z,44.45
2018-02-25T08:06:51.285Z,48.75
2018-02-25T08:09:19.956Z,51.05
2018-02-25T08:11:48.559Z,52.45
2018-02-25T08:14:16.973Z,52.88
2018-02-25T08:16:45.287Z,54.00
2018-02-25T08:19:13.655Z,50.60
2018-02-25T08:21:43.053Z,44.61
2018-02-25T08:24:11.647Z,39.05
2018-02-25T08:26:40.078Z,38.48
2018-02-25T08:29:09.323Z,39.17
2018-02-25T08:31:37.634Z,37.48
2018-02-25T08:34:05.948Z,36.57
2018-02-25T08:36:34.313Z,34.77
2018-02-25T08:39:02.632Z,36.59
2018-02-25T08:41:30.988Z,35.40
2018-02-25T08:43:59.303Z,32.08
2018-02-25T08:46:27.629Z,30.94
2018-02-25T08:48:56.061Z,33.07
2018-02-25T08:51:24.399Z,32.34
2018-02-25T08:53:52.716Z,37.91
2018-02-25T08:56:21.743Z,40.60
2018-02-25T08:58:50.148Z,42.24
2018-02-25T09:01:18.456Z,44.74
2018-02-25T09:03:46.768Z,45.91
2018-02-25T09:06:15.715Z,46.50
2018-02-25T09:08:44.100Z,46.55
2018-02-25T09:11:12.594Z,46.87
2018-02-25T09:13:40.912Z,47.30
2018-02-25T09:16:10.223Z,47.12
2018-02-25T09:18:38.568Z,46.61
2018-02-25T09:21:07.584Z,43.75
2018-02-25T09:23:35.988Z,36.82
2018-02-25T09:26:04.315Z,35.38
2018-02-25T09:28:33.278Z,32.95
2018-02-25T09:31:01.647Z,30.20
2018-02-25T09:33:29.956Z,26.96
2018-02-25T09:35:58.333Z,25.69
2018-02-25T09:38:26.644Z,25.59
2018-02-25T09:40:54.944Z,26.04
2018-02-25T09:43:24.039Z,24.66
2018-02-25T09:45:52.343Z,24.95
2018-02-25T09:48:21.234Z,23.49
2018-02-25T09:50:50.751Z,25.64
2018-02-25T09:53:19.556Z,24.19
2018-02-25T09:55:47.871Z,25.65
2018-02-25T09:58:16.976Z,26.17
2018-02-25T10:00:46.048Z,25.48
2018-02-25T10:03:14.347Z,25.67
2018-02-25T10:05:44.076Z,23.27
2018-02-25T10:08:12.384Z,24.01
2018-02-25T10:10:40.804Z,22.84
2018-02-25T10:13:09.928Z,23.52
2018-02-25T10:15:38.996Z,21.48
2018-02-25T10:18:07.318Z,22.94
2018-02-25T10:20:36.608Z,20.94
2018-02-25T10:23:05.111Z,19.83
2018-02-25T10:25:33.561Z,21.65
2018-02-25T10:28:01.872Z,22.19
2018-02-25T10:30:31.209Z,22.11
2018-02-25T10:32:59.520Z,19.59
2018-02-25T10:35:27.824Z,22.06
2018-02-25T10:37:56.184Z,23.07
2018-02-25T10:40:24.496Z,20.37
2018-02-25T10:42:52.807Z,21.00
2018-02-25T10:45:21.732Z,21.72
2018-02-25T10:47:50.043Z,22.82
2018-02-25T10:50:18.349Z,23.98
2018-02-25T10:52:46.975Z,22.72
2018-02-25T10:55:15.692Z,23.08
2018-02-25T10:57:44.815Z,23.62
2018-02-25T11:13:34.423Z,22.97
2018-02-25T11:16:02.856Z,22.33
2018-02-25T11:18:31.223Z,22.27
2018-02-25T11:20:59.727Z,24.09
2018-02-25T11:23:28.036Z,22.86
2018-02-25T11:25:56.396Z,24.19
2018-02-25T11:28:24.721Z,22.26
2018-02-25T11:30:53.088Z,22.87
2018-02-25T11:33:21.423Z,25.28
2018-02-25T11:35:49.763Z,27.52
2018-02-25T11:38:18.302Z,32.39
2018-02-25T11:40:46.663Z,33.69
2018-02-25T11:43:14.997Z,32.97
2018-02-25T11:45:43.338Z,33.33
2018-02-25T11:48:12.825Z,34.20
2018-02-25T11:50:41.953Z,35.31
2018-02-25T11:53:10.976Z,35.97
2018-02-25T11:55:40.172Z,36.13
2018-02-25T11:58:09.032Z,36.13
2018-02-25T12:00:37.398Z,36.02
2018-02-25T12:03:06.042Z,36.00
2018-02-25T12:05:34.360Z,35.70
2018-02-25T12:08:02.683Z,35.79
2018-02-25T12:10:31.056Z,35.63
2018-02-25T12:12:59.420Z,35.54
2018-02-25T12:15:29.051Z,35.05
2018-02-25T12:17:57.400Z,35.12
2018-02-25T12:20:26.208Z,35.30
2018-02-25T12:22:54.939Z,35.51
2018-02-25T12:25:23.381Z,35.82
2018-02-25T12:27:51.703Z,36.26
2018-02-25T12:30:20.365Z,35.24
2018-02-25T12:32:48.901Z,34.49
2018-02-25T12:35:17.960Z,34.85
2018-02-25T12:37:46.833Z,34.08
2018-02-25T12:40:15.832Z,34.30
2018-02-25T12:42:45.064Z,33.68
2018-02-25T12:45:13.403Z,34.57
2018-02-25T12:47:42.572Z,32.06
2018-02-25T12:50:11.040Z,33.37
2018-02-25T12:52:39.359Z,33.37
2018-02-25T12:55:07.682Z,33.47
2018-02-25T12:57:36.116Z,32.95
2018-02-25T13:00:04.444Z,31.69
2018-02-25T13:02:32.768Z,31.38
2018-02-25T13:05:01.996Z,32.13
2018-02-25T13:07:30.318Z,31.38
2018-02-25T13:09:58.631Z,30.30
2018-02-25T13:12:27.748Z,30.06
2018-02-25T13:14:56.072Z,28.49
2018-02-25T13:17:24.394Z,29.50
2018-02-25T13:19:52.738Z,27.69
2018-02-25T13:22:21.055Z,28.53
2018-02-25T13:24:49.395Z,29.02
2018-02-25T13:27:17.710Z,31.14
2018-02-25T13:29:46.030Z,32.53
2018-02-25T13:32:14.412Z,32.63
2018-02-25T13:34:42.732Z,33.09
2018-02-25T13:37:11.052Z,32.52
2018-02-25T13:39:39.408Z,32.04
2018-02-25T13:42:07.724Z,31.90
2018-02-25T13:44:36.165Z,31.93
2018-02-25T13:47:04.548Z,30.64
2018-02-25T13:49:32.869Z,30.42
2018-02-25T13:52:01.184Z,30.21
2018-02-25T13:54:29.554Z,30.41
2018-02-25T13:56:57.871Z,30.31
2018-02-25T13:59:26.179Z,30.02
2018-02-25T14:01:54.544Z,28.99
2018-02-25T14:04:22.869Z,28.58
2018-02-25T14:06:51.197Z,29.41
2018-02-25T14:09:19.561Z,29.39
2018-02-25T14:11:48.316Z,29.37
2018-02-25T14:14:16.688Z,29.85
2018-02-25T14:16:46.389Z,29.43
2018-02-25T14:19:15.532Z,29.69
2018-02-25T14:21:43.912Z,29.39
2018-02-25T14:24:12.475Z,29.72
2018-02-25T14:26:40.792Z,29.05
2018-02-25T14:29:09.232Z,28.86
2018-02-25T14:31:37.549Z,28.56
2018-02-25T14:34:05.680Z,29.57
2018-02-25T14:36:34.281Z,28.42
2018-02-25T14:39:02.600Z,27.31
2018-02-25T14:41:31.276Z,27.25
2018-02-25T14:44:00.416Z,26.19
2018-02-25T14:46:28.807Z,27.05
2018-02-25T14:48:57.066Z,27.63
2018-02-25T14:51:25.397Z,26.85
2018-02-25T14:53:53.720Z,27.39
2018-02-25T14:56:22.096Z,26.96
2018-02-25T14:58:51.256Z,26.87
2018-02-25T15:01:19.638Z,27.66
2018-02-25T15:03:47.972Z,27.79
2018-02-25T15:06:16.279Z,28.27
2018-02-25T15:08:44.655Z,28.54
2018-02-25T15:11:12.975Z,28.26
2018-02-25T15:13:42.060Z,28.27
2018-02-25T15:16:10.796Z,28.38
2018-02-25T15:18:39.110Z,28.16
2018-02-25T15:21:07.428Z,28.23
2018-02-25T15:23:35.789Z,28.54
2018-02-25T15:26:04.878Z,28.73
2018-02-25T15:28:33.221Z,28.78
2018-02-25T15:31:01.412Z,29.46
2018-02-25T15:33:30.090Z,29.36
2018-02-25T15:35:59.094Z,29.85
2018-02-25T15:38:27.421Z,30.18
2018-02-25T15:40:55.667Z,29.82
2018-02-25T15:43:24.184Z,29.81
2018-02-25T15:45:52.396Z,29.43
2018-02-25T15:48:20.791Z,30.24
2018-02-25T15:50:48.937Z,29.84
2018-02-25T15:53:17.209Z,30.39
2018-02-25T15:55:45.589Z,30.40
2018-02-25T15:58:14.040Z,31.23
2018-02-25T16:00:42.424Z,31.27
2018-02-25T16:03:10.575Z,31.83
2018-02-25T16:05:38.890Z,32.30
2018-02-25T16:08:07.203Z,32.58
2018-02-25T16:10:35.583Z,33.05
2018-02-25T16:13:04.180Z,33.75
2018-02-25T16:15:32.572Z,33.72
2018-02-25T16:18:00.894Z,34.25
2018-02-25T16:20:29.687Z,34.78
2018-02-25T16:22:58.069Z,34.68
2018-02-25T16:25:26.385Z,33.85
2018-02-25T16:27:54.701Z,34.20
2018-02-25T16:30:23.052Z,35.23
2018-02-25T16:32:51.387Z,34.94
2018-02-25T16:35:20.110Z,35.40
2018-02-25T16:37:49.211Z,35.88
2018-02-25T16:40:18.510Z,35.79
2018-02-25T16:42:46.653Z,36.15
2018-02-25T16:45:14.983Z,35.79
2018-02-25T16:47:43.371Z,36.07
2018-02-25T16:50:11.741Z,36.44
2018-02-25T16:52:40.072Z,36.72
2018-02-25T16:55:08.410Z,37.14
2018-02-25T16:57:36.784Z,37.44
2018-02-25T17:00:05.258Z,38.18
2018-02-25T17:02:33.593Z,37.67
2018-02-25T17:05:01.926Z,38.49
2018-02-25T17:07:30.390Z,38.01
2018-02-25T17:09:58.728Z,38.10
2018-02-25T17:12:27.079Z,38.73
2018-02-25T17:14:55.505Z,38.14
2018-02-25T17:17:23.800Z,39.25
2018-02-25T17:19:52.183Z,39.43
2018-02-25T17:22:20.553Z,39.51
2018-02-25T17:24:49.248Z,39.60
2018-02-25T17:27:17.724Z,40.42
2018-02-25T17:29:46.318Z,40.18
2018-02-25T17:32:14.468Z,40.05
2018-02-25T17:34:43.219Z,40.26
2018-02-25T17:37:11.453Z,40.47
2018-02-25T17:39:39.911Z,40.63
2018-02-25T17:42:08.243Z,41.18
2018-02-25T17:44:36.980Z,40.50
2018-02-25T17:47:06.188Z,40.26
2018-02-25T17:49:34.319Z,40.98
2018-02-25T17:52:02.674Z,41.33
2018-02-25T17:54:31.020Z,41.06
2018-02-25T17:56:59.343Z,40.17
2018-02-25T17:59:27.697Z,40.03
2018-02-25T18:01:56.041Z,40.09
2018-02-25T18:04:24.415Z,40.48
2018-02-25T18:06:52.772Z,39.82
2018-02-25T18:09:21.191Z,40.19
2018-02-25T18:11:49.898Z,40.48
2018-02-25T18:14:18.027Z,40.83
2018-02-25T18:16:46.329Z,41.48
2018-02-25T18:19:14.889Z,41.24
2018-02-25T18:21:43.246Z,41.71
2018-02-25T18:24:11.568Z,41.96
2018-02-25T18:26:39.996Z,42.08
2018-02-25T18:29:08.349Z,42.55
2018-02-25T18:31:36.676Z,42.49
2018-02-25T18:34:05.137Z,42.68
2018-02-25T18:36:34.845Z,43.08
2018-02-25T18:39:03.016Z,43.46
2018-02-25T18:41:31.350Z,43.35
2018-02-25T18:43:59.680Z,43.89
2018-02-25T18:46:27.877Z,44.25
2018-02-25T18:48:56.509Z,43.94
2018-02-25T18:51:24.844Z,44.61
2018-02-25T18:53:53.002Z,44.72
2018-02-25T18:56:22.814Z,45.68
2018-02-25T18:58:51.369Z,44.94
2018-02-25T19:01:20.524Z,45.45
2018-02-25T19:03:50.113Z,45.36
2018-02-25T19:06:19.019Z,45.04
2018-02-25T19:08:47.970Z,45.29
2018-02-25T19:11:16.384Z,45.26
2018-02-25T19:13:44.771Z,45.26
2018-02-25T19:16:13.124Z,45.63
2018-02-25T19:18:41.678Z,45.92
2018-02-25T19:21:10.166Z,45.29
2018-02-25T19:23:38.458Z,46.18
2018-02-25T19:26:06.776Z,45.73
2018-02-25T19:28:35.141Z,46.16
2018-02-25T19:31:03.521Z,45.49
2018-02-25T19:33:33.435Z,45.13
2018-02-25T19:36:07.923Z,45.37
2018-02-25T19:38:42.600Z,45.80
2018-02-25T19:41:17.464Z,45.30
2018-02-25T19:43:45.989Z,45.42
2018-02-25T19:46:15.160Z,45.95
2018-02-25T19:48:43.545Z,45.15
2018-02-25T19:51:11.868Z,44.69
2018-02-25T19:53:40.201Z,44.84
2018-02-25T19:56:08.636Z,44.93
2018-02-25T19:58:36.848Z,44.87
2018-02-25T20:01:04.987Z,45.15
2018-02-25T20:03:33.309Z,44.96
2018-02-25T20:06:01.684Z,45.51
2018-02-25T20:08:30.006Z,45.75
2018-02-25T20:10:58.407Z,45.55
2018-02-25T20:13:26.792Z,45.78
2018-02-25T20:15:54.893Z,45.93
2018-02-25T20:18:23.325Z,45.94
2018-02-25T20:20:51.745Z,46.12
2018-02-25T20:23:20.155Z,46.25
2018-02-25T20:25:48.475Z,46.28
2018-02-25T20:28:16.785Z,46.00
2018-02-25T20:30:45.236Z,45.49
2018-02-25T20:33:13.905Z,45.49
2018-02-25T20:35:42.288Z,45.02
2018-02-25T20:38:10.677Z,44.95
2018-02-25T20:40:39.107Z,45.69
2018-02-25T20:43:07.649Z,46.12
2018-02-25T20:45:35.920Z,44.62
2018-02-25T20:48:04.224Z,44.91
2018-02-25T20:50:33.344Z,44.66
2018-02-25T20:53:02.466Z,44.57
2018-02-25T20:55:30.976Z,44.74
2018-02-25T20:57:59.376Z,44.87
2018-02-25T21:00:27.689Z,44.88
2018-02-25T21:02:56.792Z,44.10
2018-02-25T21:05:25.171Z,44.73
2018-02-25T21:07:53.495Z,44.56
2018-02-25T21:10:21.877Z,44.28
2018-02-25T21:12:50.200Z,43.74
2018-02-25T21:15:18.513Z,44.27
2018-02-25T21:17:46.868Z,44.81
2018-02-25T21:20:15.184Z,44.46
2018-02-25T21:22:43.512Z,43.93
2018-02-25T21:25:11.861Z,44.85
2018-02-25T21:27:40.189Z,44.60
2018-02-25T21:30:08.581Z,44.70
2018-02-25T21:32:36.899Z,44.75
2018-02-25T21:35:05.229Z,44.52
2018-02-25T21:37:33.609Z,44.96
2018-02-25T21:40:01.934Z,44.70
2018-02-25T21:42:30.249Z,45.18
2018-02-25T21:44:58.625Z,44.87
2018-02-25T21:47:26.953Z,44.98
2018-02-25T21:49:55.288Z,44.97
2018-02-25T21:52:23.736Z,44.63
2018-02-25T21:54:57.612Z,44.62
2018-02-25T21:57:31.564Z,44.83
2018-02-25T22:00:05.900Z,45.12
2018-02-25T22:02:39.692Z,44.65
2018-02-25T22:05:08.008Z,44.83
2018-02-25T22:07:36.323Z,44.68
2018-02-25T22:10:04.675Z,44.69
2018-02-25T22:12:33.011Z,45.20
2018-02-25T22:15:01.325Z,45.30
2018-02-25T22:17:29.704Z,45.64
2018-02-25T22:19:58.022Z,46.16
2018-02-25T22:22:26.380Z,46.27
2018-02-25T22:24:54.688Z,46.24
2018-02-25T22:27:23.816Z,46.03
2018-02-25T22:29:52.152Z,46.25
2018-02-25T22:32:20.489Z,46.03
2018-02-25T22:34:49.210Z,46.47
2018-02-25T22:37:17.492Z,47.28
2018-02-25T22:39:45.811Z,47.35
2018-02-25T22:42:14.166Z,47.06
2018-02-25T22:44:42.510Z,46.47
2018-02-25T22:47:10.856Z,46.69
2018-02-25T22:49:39.224Z,47.27
2018-02-25T22:52:07.580Z,46.94
2018-02-25T22:54:35.910Z,46.86
2018-02-25T22:57:04.276Z,46.91
2018-02-25T22:59:32.584Z,47.19
2018-02-25T23:02:00.918Z,46.54
2018-02-25T23:04:29.301Z,47.50
2018-02-25T23:06:57.632Z,47.67
2018-02-25T23:09:26.733Z,47.66
2018-02-25T23:11:55.877Z,47.71
2018-02-25T23:14:24.196Z,48.00
2018-02-25T23:16:52.537Z,47.65
2018-02-25T23:19:20.908Z,47.60
2018-02-25T23:21:49.248Z,47.85
2018-02-25T23:24:17.585Z,47.33
2018-02-25T23:26:45.951Z,47.78
2018-02-25T23:29:14.292Z,47.92
2018-02-25T23:31:42.653Z,48.54
2018-02-25T23:34:11.754Z,48.48
2018-02-25T23:36:40.896Z,47.88
2018-02-25T23:39:09.223Z,48.46
2018-02-25T23:41:37.567Z,49.13
2018-02-25T23:44:05.945Z,48.45
2018-02-25T23:46:34.293Z,48.79
2018-02-25T23:49:02.967Z,49.09
2018-02-25T23:51:31.348Z,48.37
2018-02-25T23:53:59.664Z,48.61
2018-02-25T23:56:28.072Z,49.40
2018-02-25T23:58:56.383Z,49.16
